sensor_id;sensor_type;location;lat;lon;timestamp;temperature;humidity
61374;DHT22;47242;48.158;-1.586;2023-03-11T05:32:27;5.50;85.60
61374;DHT22;47242;48.158;-1.586;2023-03-11T05:34:52;5.70;85.70
61374;DHT22;47242;48.158;-1.586;2023-03-11T05:37:18;5.70;85.40
61374;DHT22;47242;48.158;-1.586;2023-03-11T05:39:43;5.70;85.00
61374;DHT22;47242;48.158;-1.586;2023-03-11T05:42:09;5.60;85.10
61374;DHT22;47242;48.158;-1.586;2023-03-11T05:44:35;5.60;85.30
61374;DHT22;47242;48.158;-1.586;2023-03-11T05:47:01;5.70;85.40
61374;DHT22;47242;48.158;-1.586;2023-03-11T05:49:27;5.70;85.80
61374;DHT22;47242;48.158;-1.586;2023-03-11T05:51:53;5.70;85.00
61374;DHT22;47242;48.158;-1.586;2023-03-11T05:54:18;5.80;85.30
61374;DHT22;47242;48.158;-1.586;2023-03-11T05:56:46;5.70;85.10
61374;DHT22;47242;48.158;-1.586;2023-03-11T05:59:13;5.80;85.50
61374;DHT22;47242;48.158;-1.586;2023-03-11T06:01:39;5.80;85.20
61374;DHT22;47242;48.158;-1.586;2023-03-11T06:04:06;5.90;84.80
61374;DHT22;47242;48.158;-1.586;2023-03-11T06:06:32;5.80;85.20
61374;DHT22;47242;48.158;-1.586;2023-03-11T06:08:57;5.80;85.20
61374;DHT22;47242;48.158;-1.586;2023-03-11T06:11:23;5.80;85.40
61374;DHT22;47242;48.158;-1.586;2023-03-11T06:13:52;5.80;85.50
61374;DHT22;47242;48.158;-1.586;2023-03-11T06:16:19;5.70;85.70
61374;DHT22;47242;48.158;-1.586;2023-03-11T06:18:45;5.70;85.70
61374;DHT22;47242;48.158;-1.586;2023-03-11T06:21:19;5.80;85.80
61374;DHT22;47242;48.158;-1.586;2023-03-11T06:23:44;5.70;85.80
61374;DHT22;47242;48.158;-1.586;2023-03-11T06:26:13;5.70;85.90
61374;DHT22;47242;48.158;-1.586;2023-03-11T06:28:41;5.70;86.20
61374;DHT22;47242;48.158;-1.586;2023-03-11T06:31:33;5.70;86.30
61374;DHT22;47242;48.158;-1.586;2023-03-11T06:33:58;5.70;86.10
61374;DHT22;47242;48.158;-1.586;2023-03-11T06:36:24;5.70;86.50
61374;DHT22;47242;48.158;-1.586;2023-03-11T06:38:53;5.80;86.40
61374;DHT22;47242;48.158;-1.586;2023-03-11T06:41:19;5.80;85.80
61374;DHT22;47242;48.158;-1.586;2023-03-11T06:43:45;5.70;86.30
61374;DHT22;47242;48.158;-1.586;2023-03-11T06:46:14;5.70;86.20
61374;DHT22;47242;48.158;-1.586;2023-03-11T06:48:40;5.70;86.60
61374;DHT22;47242;48.158;-1.586;2023-03-11T06:51:05;5.70;86.60
61374;DHT22;47242;48.158;-1.586;2023-03-11T06:53:31;5.70;86.80
61374;DHT22;47242;48.158;-1.586;2023-03-11T06:56:08;5.60;86.60
61374;DHT22;47242;48.158;-1.586;2023-03-11T06:58:36;5.70;87.30
61374;DHT22;47242;48.158;-1.586;2023-03-11T07:01:07;5.70;87.10
61374;DHT22;47242;48.158;-1.586;2023-03-11T07:03:33;5.70;87.30
61374;DHT22;47242;48.158;-1.586;2023-03-11T07:05:59;5.80;86.90
61374;DHT22;47242;48.158;-1.586;2023-03-11T07:08:25;5.80;86.40
61374;DHT22;47242;48.158;-1.586;2023-03-11T07:11:05;5.90;86.50
61374;DHT22;47242;48.158;-1.586;2023-03-11T07:13:31;5.80;86.30
61374;DHT22;47242;48.158;-1.586;2023-03-11T07:16:06;5.80;86.50
61374;DHT22;47242;48.158;-1.586;2023-03-11T07:18:33;5.90;86.40
61374;DHT22;47242;48.158;-1.586;2023-03-11T07:21:05;5.80;86.60
61374;DHT22;47242;48.158;-1.586;2023-03-11T07:23:31;5.90;86.60
61374;DHT22;47242;48.158;-1.586;2023-03-11T07:25:57;5.90;86.30
61374;DHT22;47242;48.158;-1.586;2023-03-11T07:28:23;5.90;86.40
61374;DHT22;47242;48.158;-1.586;2023-03-11T07:30:50;5.90;86.40
61374;DHT22;47242;48.158;-1.586;2023-03-11T07:33:16;5.90;86.90
61374;DHT22;47242;48.158;-1.586;2023-03-11T07:35:42;5.90;86.80
61374;DHT22;47242;48.158;-1.586;2023-03-11T07:38:07;5.70;86.40
61374;DHT22;47242;48.158;-1.586;2023-03-11T07:40:33;5.80;86.80
61374;DHT22;47242;48.158;-1.586;2023-03-11T07:42:59;5.80;86.80
61374;DHT22;47242;48.158;-1.586;2023-03-11T07:45:25;5.80;87.00
61374;DHT22;47242;48.158;-1.586;2023-03-11T07:47:50;5.90;87.00
61374;DHT22;47242;48.158;-1.586;2023-03-11T07:50:16;5.90;86.80
61374;DHT22;47242;48.158;-1.586;2023-03-11T07:52:43;6.10;86.80
61374;DHT22;47242;48.158;-1.586;2023-03-11T07:55:08;6.20;86.30
61374;DHT22;47242;48.158;-1.586;2023-03-11T07:57:34;6.20;86.40
61374;DHT22;47242;48.158;-1.586;2023-03-11T08:00:00;6.20;86.30
61374;DHT22;47242;48.158;-1.586;2023-03-11T08:02:26;6.30;86.30
61374;DHT22;47242;48.158;-1.586;2023-03-11T08:04:54;6.20;86.30
61374;DHT22;47242;48.158;-1.586;2023-03-11T08:07:20;6.30;86.20
61374;DHT22;47242;48.158;-1.586;2023-03-11T08:09:45;6.30;85.80
61374;DHT22;47242;48.158;-1.586;2023-03-11T08:12:11;6.20;86.00
61374;DHT22;47242;48.158;-1.586;2023-03-11T08:14:37;6.20;86.30
61374;DHT22;47242;48.158;-1.586;2023-03-11T08:17:04;6.20;86.30
61374;DHT22;47242;48.158;-1.586;2023-03-11T08:19:30;6.20;86.10
61374;DHT22;47242;48.158;-1.586;2023-03-11T08:21:55;6.10;86.90
61374;DHT22;47242;48.158;-1.586;2023-03-11T08:24:21;6.20;86.90
61374;DHT22;47242;48.158;-1.586;2023-03-11T08:26:47;6.20;87.00
61374;DHT22;47242;48.158;-1.586;2023-03-11T08:29:12;6.20;86.70
61374;DHT22;47242;48.158;-1.586;2023-03-11T08:31:38;6.30;86.90
61374;DHT22;47242;48.158;-1.586;2023-03-11T08:34:07;6.20;87.20
61374;DHT22;47242;48.158;-1.586;2023-03-11T08:36:33;6.20;87.20
61374;DHT22;47242;48.158;-1.586;2023-03-11T08:38:58;6.30;87.00
61374;DHT22;47242;48.158;-1.586;2023-03-11T08:41:24;6.20;87.00
61374;DHT22;47242;48.158;-1.586;2023-03-11T08:43:50;6.40;87.20
61374;DHT22;47242;48.158;-1.586;2023-03-11T08:46:23;6.40;86.90
61374;DHT22;47242;48.158;-1.586;2023-03-11T08:48:49;6.50;86.80
61374;DHT22;47242;48.158;-1.586;2023-03-11T08:51:16;6.60;86.70
61374;DHT22;47242;48.158;-1.586;2023-03-11T08:53:42;6.70;86.60
61374;DHT22;47242;48.158;-1.586;2023-03-11T08:56:07;6.70;86.70
61374;DHT22;47242;48.158;-1.586;2023-03-11T08:58:33;6.80;86.40
61374;DHT22;47242;48.158;-1.586;2023-03-11T09:00:59;6.80;86.40
61374;DHT22;47242;48.158;-1.586;2023-03-11T09:03:25;6.90;86.40
61374;DHT22;47242;48.158;-1.586;2023-03-11T09:06:02;6.90;86.00
61374;DHT22;47242;48.158;-1.586;2023-03-11T09:08:29;6.90;85.80
61374;DHT22;47242;48.158;-1.586;2023-03-11T09:10:54;6.80;86.30
61374;DHT22;47242;48.158;-1.586;2023-03-11T09:13:20;7.00;86.20
61374;DHT22;47242;48.158;-1.586;2023-03-11T09:15:50;7.00;85.70
61374;DHT22;47242;48.158;-1.586;2023-03-11T09:18:16;6.90;86.30
61374;DHT22;47242;48.158;-1.586;2023-03-11T09:20:42;7.00;86.20
61374;DHT22;47242;48.158;-1.586;2023-03-11T09:23:09;7.10;86.00
61374;DHT22;47242;48.158;-1.586;2023-03-11T09:25:35;7.20;86.40
61374;DHT22;47242;48.158;-1.586;2023-03-11T09:28:01;7.20;86.20
61374;DHT22;47242;48.158;-1.586;2023-03-11T09:30:27;7.10;85.50
61374;DHT22;47242;48.158;-1.586;2023-03-11T09:32:53;7.20;86.00
61374;DHT22;47242;48.158;-1.586;2023-03-11T09:35:18;7.30;86.10
61374;DHT22;47242;48.158;-1.586;2023-03-11T09:37:44;7.20;86.00
61374;DHT22;47242;48.158;-1.586;2023-03-11T09:40:15;7.20;85.50
61374;DHT22;47242;48.158;-1.586;2023-03-11T09:43:21;7.40;86.30
61374;DHT22;47242;48.158;-1.586;2023-03-11T09:52:13;7.60;86.30
61374;DHT22;47242;48.158;-1.586;2023-03-11T09:54:43;7.70;85.80
61374;DHT22;47242;48.158;-1.586;2023-03-11T09:57:23;7.70;85.60
61374;DHT22;47242;48.158;-1.586;2023-03-11T09:59:50;7.80;85.50
61374;DHT22;47242;48.158;-1.586;2023-03-11T10:02:21;7.90;85.40
61374;DHT22;47242;48.158;-1.586;2023-03-11T10:05:08;7.90;85.20
61374;DHT22;47242;48.158;-1.586;2023-03-11T10:07:41;7.90;85.30
61374;DHT22;47242;48.158;-1.586;2023-03-11T10:10:13;8.00;86.10
61374;DHT22;47242;48.158;-1.586;2023-03-11T10:13:07;8.20;85.70
61374;DHT22;47242;48.158;-1.586;2023-03-11T10:18:15;8.20;85.50
61374;DHT22;47242;48.158;-1.586;2023-03-11T10:23:51;8.10;85.40
61374;DHT22;47242;48.158;-1.586;2023-03-11T10:26:30;8.20;85.60
61374;DHT22;47242;48.158;-1.586;2023-03-11T10:29:26;8.20;85.50
61374;DHT22;47242;48.158;-1.586;2023-03-11T10:31:59;8.20;85.50
61374;DHT22;47242;48.158;-1.586;2023-03-11T10:34:32;8.30;85.60
61374;DHT22;47242;48.158;-1.586;2023-03-11T10:37:04;8.30;85.50
61374;DHT22;47242;48.158;-1.586;2023-03-11T10:39:34;8.50;85.80
61374;DHT22;47242;48.158;-1.586;2023-03-11T10:42:05;8.60;85.40
61374;DHT22;47242;48.158;-1.586;2023-03-11T10:44:37;8.60;85.10
61374;DHT22;47242;48.158;-1.586;2023-03-11T10:47:04;8.80;85.30
61374;DHT22;47242;48.158;-1.586;2023-03-11T10:49:30;8.60;84.20
61374;DHT22;47242;48.158;-1.586;2023-03-11T10:51:57;8.70;84.80
61374;DHT22;47242;48.158;-1.586;2023-03-11T10:54:35;8.90;85.60
61374;DHT22;47242;48.158;-1.586;2023-03-11T10:57:05;8.70;84.20
61374;DHT22;47242;48.158;-1.586;2023-03-11T10:59:47;8.70;85.10
61374;DHT22;47242;48.158;-1.586;2023-03-11T11:02:40;8.70;85.30
61374;DHT22;47242;48.158;-1.586;2023-03-11T11:08:12;9.00;84.90
61374;DHT22;47242;48.158;-1.586;2023-03-11T11:10:49;9.10;84.40
61374;DHT22;47242;48.158;-1.586;2023-03-11T11:13:17;9.10;84.60
61374;DHT22;47242;48.158;-1.586;2023-03-11T11:15:55;9.20;85.10
61374;DHT22;47242;48.158;-1.586;2023-03-11T11:18:25;9.40;84.90
61374;DHT22;47242;48.158;-1.586;2023-03-11T11:23:30;9.70;84.10
61374;DHT22;47242;48.158;-1.586;2023-03-11T11:25:59;9.60;83.30
61374;DHT22;47242;48.158;-1.586;2023-03-11T11:28:25;9.30;83.80
61374;DHT22;47242;48.158;-1.586;2023-03-11T11:30:55;9.70;84.70
61374;DHT22;47242;48.158;-1.586;2023-03-11T11:33:29;9.90;84.30
61374;DHT22;47242;48.158;-1.586;2023-03-11T11:36:01;9.90;83.70
61374;DHT22;47242;48.158;-1.586;2023-03-11T11:38:29;9.70;83.70
61374;DHT22;47242;48.158;-1.586;2023-03-11T11:40:58;9.70;84.10
61374;DHT22;47242;48.158;-1.586;2023-03-11T11:46:15;9.50;83.90
61374;DHT22;47242;48.158;-1.586;2023-03-11T11:48:47;9.60;84.40
61374;DHT22;47242;48.158;-1.586;2023-03-11T11:51:27;9.80;85.40
61374;DHT22;47242;48.158;-1.586;2023-03-11T11:53:55;10.00;85.10
61374;DHT22;47242;48.158;-1.586;2023-03-11T11:56:24;10.10;84.40
61374;DHT22;47242;48.158;-1.586;2023-03-11T11:58:50;10.20;84.30
61374;DHT22;47242;48.158;-1.586;2023-03-11T12:01:28;10.20;84.10
61374;DHT22;47242;48.158;-1.586;2023-03-11T12:07:10;10.30;83.90
61374;DHT22;47242;48.158;-1.586;2023-03-11T12:17:42;10.70;83.80
61374;DHT22;47242;48.158;-1.586;2023-03-11T12:20:29;10.80;83.90
61374;DHT22;47242;48.158;-1.586;2023-03-11T12:23:19;10.80;83.90
61374;DHT22;47242;48.158;-1.586;2023-03-11T12:28:47;10.80;84.00
61374;DHT22;47242;48.158;-1.586;2023-03-11T12:31:15;10.80;83.50
61374;DHT22;47242;48.158;-1.586;2023-03-11T12:33:57;10.70;84.00
61374;DHT22;47242;48.158;-1.586;2023-03-11T12:36:25;10.70;84.10
61374;DHT22;47242;48.158;-1.586;2023-03-11T12:38:53;10.80;84.10
61374;DHT22;47242;48.158;-1.586;2023-03-11T12:41:26;10.90;84.00
61374;DHT22;47242;48.158;-1.586;2023-03-11T12:46:20;10.80;84.00
61374;DHT22;47242;48.158;-1.586;2023-03-11T12:49:13;10.80;84.20
61374;DHT22;47242;48.158;-1.586;2023-03-11T12:51:40;10.90;84.40
61374;DHT22;47242;48.158;-1.586;2023-03-11T12:54:29;11.10;84.30
61374;DHT22;47242;48.158;-1.586;2023-03-11T13:08:08;11.60;83.40
61374;DHT22;47242;48.158;-1.586;2023-03-11T13:10:50;11.70;83.30
61374;DHT22;47242;48.158;-1.586;2023-03-11T13:18:44;11.90;82.90
61374;DHT22;47242;48.158;-1.586;2023-03-11T13:32:39;12.40;83.10
61374;DHT22;47242;48.158;-1.586;2023-03-11T13:35:51;12.40;82.80
61374;DHT22;47242;48.158;-1.586;2023-03-11T13:41:31;12.30;82.90
61374;DHT22;47242;48.158;-1.586;2023-03-11T13:46:46;12.20;83.30
61374;DHT22;47242;48.158;-1.586;2023-03-11T13:51:49;12.20;83.70
61374;DHT22;47242;48.158;-1.586;2023-03-11T13:57:00;12.30;83.60
61374;DHT22;47242;48.158;-1.586;2023-03-11T13:59:32;12.50;83.80
61374;DHT22;47242;48.158;-1.586;2023-03-11T14:04:31;12.50;83.80
61374;DHT22;47242;48.158;-1.586;2023-03-11T14:06:57;12.80;83.80
61374;DHT22;47242;48.158;-1.586;2023-03-11T14:09:26;12.90;83.30
61374;DHT22;47242;48.158;-1.586;2023-03-11T14:11:53;12.90;83.40
61374;DHT22;47242;48.158;-1.586;2023-03-11T14:14:53;12.90;83.80
61374;DHT22;47242;48.158;-1.586;2023-03-11T14:17:20;12.80;83.70
61374;DHT22;47242;48.158;-1.586;2023-03-11T14:20:13;13.00;84.00
61374;DHT22;47242;48.158;-1.586;2023-03-11T14:22:46;13.00;84.50
61374;DHT22;47242;48.158;-1.586;2023-03-11T14:25:21;13.00;84.00
61374;DHT22;47242;48.158;-1.586;2023-03-11T14:27:52;13.10;84.10
61374;DHT22;47242;48.158;-1.586;2023-03-11T14:30:19;13.00;83.90
61374;DHT22;47242;48.158;-1.586;2023-03-11T14:33:01;13.10;84.00
61374;DHT22;47242;48.158;-1.586;2023-03-11T14:35:28;13.00;84.20
61374;DHT22;47242;48.158;-1.586;2023-03-11T14:37:54;13.00;84.50
61374;DHT22;47242;48.158;-1.586;2023-03-11T14:40:21;12.90;84.60
61374;DHT22;47242;48.158;-1.586;2023-03-11T14:42:47;13.00;84.80
61374;DHT22;47242;48.158;-1.586;2023-03-11T14:45:18;13.10;85.00
61374;DHT22;47242;48.158;-1.586;2023-03-11T14:47:55;13.10;85.10
61374;DHT22;47242;48.158;-1.586;2023-03-11T14:50:25;13.10;85.30
61374;DHT22;47242;48.158;-1.586;2023-03-11T14:53:02;13.10;85.10
61374;DHT22;47242;48.158;-1.586;2023-03-11T14:55:37;13.20;85.40
61374;DHT22;47242;48.158;-1.586;2023-03-11T14:58:20;13.20;85.40
61374;DHT22;47242;48.158;-1.586;2023-03-11T15:00:54;13.30;85.40
61374;DHT22;47242;48.158;-1.586;2023-03-11T15:03:24;13.30;85.10
61374;DHT22;47242;48.158;-1.586;2023-03-11T15:06:00;13.40;85.00
61374;DHT22;47242;48.158;-1.586;2023-03-11T15:08:32;13.40;85.30
61374;DHT22;47242;48.158;-1.586;2023-03-11T15:11:20;13.40;85.40
61374;DHT22;47242;48.158;-1.586;2023-03-11T15:13:47;13.50;85.60
61374;DHT22;47242;48.158;-1.586;2023-03-11T15:16:24;13.50;85.30
61374;DHT22;47242;48.158;-1.586;2023-03-11T15:18:53;13.50;85.20
61374;DHT22;47242;48.158;-1.586;2023-03-11T15:21:21;13.60;85.40
61374;DHT22;47242;48.158;-1.586;2023-03-11T15:23:50;13.50;85.10
61374;DHT22;47242;48.158;-1.586;2023-03-11T15:26:22;13.50;85.50
61374;DHT22;47242;48.158;-1.586;2023-03-11T15:28:54;13.60;85.50
61374;DHT22;47242;48.158;-1.586;2023-03-11T15:33:46;13.70;85.40
61374;DHT22;47242;48.158;-1.586;2023-03-11T15:47:33;14.10;85.70
61374;DHT22;47242;48.158;-1.586;2023-03-11T15:50:20;14.20;85.10
61374;DHT22;47242;48.158;-1.586;2023-03-11T15:52:49;14.20;85.40
61374;DHT22;47242;48.158;-1.586;2023-03-11T15:55:15;14.30;85.30
61374;DHT22;47242;48.158;-1.586;2023-03-11T15:57:41;14.30;85.40
61374;DHT22;47242;48.158;-1.586;2023-03-11T16:00:16;14.30;85.40
61374;DHT22;47242;48.158;-1.586;2023-03-11T16:02:44;14.20;85.10
61374;DHT22;47242;48.158;-1.586;2023-03-11T16:05:23;14.20;85.40
61374;DHT22;47242;48.158;-1.586;2023-03-11T16:07:49;14.20;85.20
61374;DHT22;47242;48.158;-1.586;2023-03-11T16:10:24;14.10;85.10
61374;DHT22;47242;48.158;-1.586;2023-03-11T16:12:53;14.10;85.70
61374;DHT22;47242;48.158;-1.586;2023-03-11T16:15:29;14.00;85.40
61374;DHT22;47242;48.158;-1.586;2023-03-11T16:17:57;14.00;85.40
61374;DHT22;47242;48.158;-1.586;2023-03-11T16:20:24;14.00;85.50
61374;DHT22;47242;48.158;-1.586;2023-03-11T16:23:10;14.00;85.60
61374;DHT22;47242;48.158;-1.586;2023-03-11T16:25:39;14.00;86.00
61374;DHT22;47242;48.158;-1.586;2023-03-11T16:28:05;14.00;86.10
61374;DHT22;47242;48.158;-1.586;2023-03-11T16:30:33;14.00;85.70
61374;DHT22;47242;48.158;-1.586;2023-03-11T16:32:59;14.00;85.80
61374;DHT22;47242;48.158;-1.586;2023-03-11T16:35:25;14.10;86.10
61374;DHT22;47242;48.158;-1.586;2023-03-11T16:37:53;14.10;85.80
61374;DHT22;47242;48.158;-1.586;2023-03-11T16:40:21;14.00;85.70
61374;DHT22;47242;48.158;-1.586;2023-03-11T16:43:11;14.10;86.10
61374;DHT22;47242;48.158;-1.586;2023-03-11T16:45:38;14.10;85.70
61374;DHT22;47242;48.158;-1.586;2023-03-11T16:48:04;14.00;86.00
61374;DHT22;47242;48.158;-1.586;2023-03-11T16:50:30;14.10;86.10
61374;DHT22;47242;48.158;-1.586;2023-03-11T16:52:57;14.10;86.10
61374;DHT22;47242;48.158;-1.586;2023-03-11T16:55:27;14.20;86.30
61374;DHT22;47242;48.158;-1.586;2023-03-11T16:57:53;14.20;86.20
61374;DHT22;47242;48.158;-1.586;2023-03-11T17:00:20;14.20;86.20
61374;DHT22;47242;48.158;-1.586;2023-03-11T17:02:46;14.30;86.10
61374;DHT22;47242;48.158;-1.586;2023-03-11T17:05:12;14.30;85.80
61374;DHT22;47242;48.158;-1.586;2023-03-11T17:07:38;14.30;85.90
61374;DHT22;47242;48.158;-1.586;2023-03-11T17:10:04;14.20;86.00
61374;DHT22;47242;48.158;-1.586;2023-03-11T17:12:30;14.20;86.30
61374;DHT22;47242;48.158;-1.586;2023-03-11T17:14:56;14.20;86.40
61374;DHT22;47242;48.158;-1.586;2023-03-11T17:17:22;14.10;86.40
61374;DHT22;47242;48.158;-1.586;2023-03-11T17:19:48;14.00;86.10
61374;DHT22;47242;48.158;-1.586;2023-03-11T17:22:14;14.00;86.60
61374;DHT22;47242;48.158;-1.586;2023-03-11T17:24:40;13.90;86.80
61374;DHT22;47242;48.158;-1.586;2023-03-11T17:27:05;13.90;86.90
61374;DHT22;47242;48.158;-1.586;2023-03-11T17:29:31;13.90;87.10
61374;DHT22;47242;48.158;-1.586;2023-03-11T17:31:58;13.90;87.10
61374;DHT22;47242;48.158;-1.586;2023-03-11T17:34:24;13.80;87.30
61374;DHT22;47242;48.158;-1.586;2023-03-11T17:36:50;13.80;87.00
61374;DHT22;47242;48.158;-1.586;2023-03-11T17:39:16;13.80;87.00
61374;DHT22;47242;48.158;-1.586;2023-03-11T17:41:42;13.70;87.00
61374;DHT22;47242;48.158;-1.586;2023-03-11T17:44:09;13.70;87.20
61374;DHT22;47242;48.158;-1.586;2023-03-11T17:46:35;13.70;87.30
61374;DHT22;47242;48.158;-1.586;2023-03-11T17:49:01;13.70;87.40
61374;DHT22;47242;48.158;-1.586;2023-03-11T17:51:26;13.80;87.40
61374;DHT22;47242;48.158;-1.586;2023-03-11T17:53:53;13.80;87.40
61374;DHT22;47242;48.158;-1.586;2023-03-11T17:56:20;13.80;87.40
61374;DHT22;47242;48.158;-1.586;2023-03-11T17:58:47;13.80;87.80
61374;DHT22;47242;48.158;-1.586;2023-03-11T18:01:15;13.70;87.70
61374;DHT22;47242;48.158;-1.586;2023-03-11T18:03:41;13.70;87.80
61374;DHT22;47242;48.158;-1.586;2023-03-11T18:06:07;13.70;87.80
61374;DHT22;47242;48.158;-1.586;2023-03-11T18:08:34;13.70;87.80
61374;DHT22;47242;48.158;-1.586;2023-03-11T18:11:03;13.70;87.80
61374;DHT22;47242;48.158;-1.586;2023-03-11T18:13:30;13.70;87.70
61374;DHT22;47242;48.158;-1.586;2023-03-11T18:16:01;13.70;87.60
61374;DHT22;47242;48.158;-1.586;2023-03-11T18:18:28;13.70;87.40
61374;DHT22;47242;48.158;-1.586;2023-03-11T18:20:54;13.70;87.20
61374;DHT22;47242;48.158;-1.586;2023-03-11T18:23:20;13.70;87.10
61374;DHT22;47242;48.158;-1.586;2023-03-11T18:25:49;13.70;87.10
61374;DHT22;47242;48.158;-1.586;2023-03-11T18:28:16;13.60;87.10
61374;DHT22;47242;48.158;-1.586;2023-03-11T18:30:42;13.60;87.10
61374;DHT22;47242;48.158;-1.586;2023-03-11T18:33:07;13.60;87.20
61374;DHT22;47242;48.158;-1.586;2023-03-11T18:35:33;13.50;87.20
61374;DHT22;47242;48.158;-1.586;2023-03-11T18:37:58;13.50;87.30
61374;DHT22;47242;48.158;-1.586;2023-03-11T18:40:24;13.50;87.20
61374;DHT22;47242;48.158;-1.586;2023-03-11T18:42:52;13.50;87.20
61374;DHT22;47242;48.158;-1.586;2023-03-11T18:45:18;13.50;87.20
61374;DHT22;47242;48.158;-1.586;2023-03-11T18:47:43;13.50;87.20
61374;DHT22;47242;48.158;-1.586;2023-03-11T18:50:10;13.50;87.00
61374;DHT22;47242;48.158;-1.586;2023-03-11T18:52:35;13.40;87.00
61374;DHT22;47242;48.158;-1.586;2023-03-11T18:55:01;13.40;87.00
61374;DHT22;47242;48.158;-1.586;2023-03-11T18:57:27;13.30;86.90
61374;DHT22;47242;48.158;-1.586;2023-03-11T18:59:52;13.30;87.10
61374;DHT22;47242;48.158;-1.586;2023-03-11T19:02:18;13.20;86.90
61374;DHT22;47242;48.158;-1.586;2023-03-11T19:04:45;13.20;87.10
61374;DHT22;47242;48.158;-1.586;2023-03-11T19:07:11;13.20;87.10
61374;DHT22;47242;48.158;-1.586;2023-03-11T19:09:36;13.10;87.00
61374;DHT22;47242;48.158;-1.586;2023-03-11T19:12:02;13.10;87.10
61374;DHT22;47242;48.158;-1.586;2023-03-11T19:14:28;13.00;87.10
61374;DHT22;47242;48.158;-1.586;2023-03-11T19:16:53;13.00;87.10
61374;DHT22;47242;48.158;-1.586;2023-03-11T19:19:19;12.90;87.00
61374;DHT22;47242;48.158;-1.586;2023-03-11T19:21:45;12.90;87.20
61374;DHT22;47242;48.158;-1.586;2023-03-11T19:24:12;12.80;87.00
61374;DHT22;47242;48.158;-1.586;2023-03-11T19:26:38;12.80;87.30
61374;DHT22;47242;48.158;-1.586;2023-03-11T19:29:05;12.80;87.30
61374;DHT22;47242;48.158;-1.586;2023-03-11T19:31:31;12.70;87.20
61374;DHT22;47242;48.158;-1.586;2023-03-11T19:33:57;12.70;87.30
61374;DHT22;47242;48.158;-1.586;2023-03-11T19:36:24;12.70;87.20
61374;DHT22;47242;48.158;-1.586;2023-03-11T19:38:49;12.70;87.20
61374;DHT22;47242;48.158;-1.586;2023-03-11T19:41:17;12.70;87.20
61374;DHT22;47242;48.158;-1.586;2023-03-11T19:43:44;12.80;87.10
61374;DHT22;47242;48.158;-1.586;2023-03-11T19:46:12;12.80;87.20
61374;DHT22;47242;48.158;-1.586;2023-03-11T19:48:38;12.80;87.40
61374;DHT22;47242;48.158;-1.586;2023-03-11T19:51:04;12.80;87.10
61374;DHT22;47242;48.158;-1.586;2023-03-11T19:53:31;12.80;87.00
61374;DHT22;47242;48.158;-1.586;2023-03-11T19:55:57;12.80;87.00
61374;DHT22;47242;48.158;-1.586;2023-03-11T19:58:24;12.80;86.80
61374;DHT22;47242;48.158;-1.586;2023-03-11T20:00:50;12.80;86.80
61374;DHT22;47242;48.158;-1.586;2023-03-11T20:03:18;12.80;86.90
61374;DHT22;47242;48.158;-1.586;2023-03-11T20:05:46;12.80;86.80
61374;DHT22;47242;48.158;-1.586;2023-03-11T20:08:16;12.80;86.20
61374;DHT22;47242;48.158;-1.586;2023-03-11T20:10:44;12.80;86.70
61374;DHT22;47242;48.158;-1.586;2023-03-11T20:13:10;12.90;86.20
61374;DHT22;47242;48.158;-1.586;2023-03-11T20:15:36;12.90;86.50
61374;DHT22;47242;48.158;-1.586;2023-03-11T20:18:02;12.90;86.70
61374;DHT22;47242;48.158;-1.586;2023-03-11T20:20:30;12.90;85.60
61374;DHT22;47242;48.158;-1.586;2023-03-11T20:22:56;12.90;86.00
61374;DHT22;47242;48.158;-1.586;2023-03-11T20:25:22;13.00;86.30
61374;DHT22;47242;48.158;-1.586;2023-03-11T20:27:49;13.00;86.30
61374;DHT22;47242;48.158;-1.586;2023-03-11T20:30:15;13.00;86.20
61374;DHT22;47242;48.158;-1.586;2023-03-11T20:32:45;13.00;86.30
61374;DHT22;47242;48.158;-1.586;2023-03-11T20:35:11;12.90;85.60
61374;DHT22;47242;48.158;-1.586;2023-03-11T20:37:39;12.90;86.10
61374;DHT22;47242;48.158;-1.586;2023-03-11T20:40:05;12.90;86.30
61374;DHT22;47242;48.158;-1.586;2023-03-11T20:42:31;12.80;86.20
61374;DHT22;47242;48.158;-1.586;2023-03-11T20:44:57;12.80;86.40
61374;DHT22;47242;48.158;-1.586;2023-03-11T20:47:23;12.80;86.10
61374;DHT22;47242;48.158;-1.586;2023-03-11T20:49:48;12.70;86.20
61374;DHT22;47242;48.158;-1.586;2023-03-11T20:52:14;12.70;86.20
61374;DHT22;47242;48.158;-1.586;2023-03-11T20:54:40;12.70;86.20
61374;DHT22;47242;48.158;-1.586;2023-03-11T20:57:06;12.60;86.10
61374;DHT22;47242;48.158;-1.586;2023-03-11T20:59:32;12.60;86.50
61374;DHT22;47242;48.158;-1.586;2023-03-11T21:01:58;12.60;86.40
61374;DHT22;47242;48.158;-1.586;2023-03-11T21:04:23;12.60;86.20
61374;DHT22;47242;48.158;-1.586;2023-03-11T21:06:50;12.60;86.60
61374;DHT22;47242;48.158;-1.586;2023-03-11T21:09:19;12.60;86.30
61374;DHT22;47242;48.158;-1.586;2023-03-11T21:11:45;12.60;86.30
61374;DHT22;47242;48.158;-1.586;2023-03-11T21:14:14;12.50;86.20
61374;DHT22;47242;48.158;-1.586;2023-03-11T21:16:40;12.50;86.60
61374;DHT22;47242;48.158;-1.586;2023-03-11T21:19:07;12.50;86.70
61374;DHT22;47242;48.158;-1.586;2023-03-11T21:21:34;12.50;86.70
61374;DHT22;47242;48.158;-1.586;2023-03-11T21:24:00;12.50;86.70
61374;DHT22;47242;48.158;-1.586;2023-03-11T21:26:26;12.50;86.70
61374;DHT22;47242;48.158;-1.586;2023-03-11T21:28:53;12.50;86.70
61374;DHT22;47242;48.158;-1.586;2023-03-11T21:31:21;12.50;87.00
61374;DHT22;47242;48.158;-1.586;2023-03-11T21:33:47;12.40;86.70
61374;DHT22;47242;48.158;-1.586;2023-03-11T21:36:14;12.40;86.90
61374;DHT22;47242;48.158;-1.586;2023-03-11T21:38:40;12.40;86.90
61374;DHT22;47242;48.158;-1.586;2023-03-11T21:41:14;12.40;86.90
61374;DHT22;47242;48.158;-1.586;2023-03-11T21:43:41;12.40;87.10
61374;DHT22;47242;48.158;-1.586;2023-03-11T21:46:08;12.40;87.10
61374;DHT22;47242;48.158;-1.586;2023-03-11T21:48:34;12.40;87.10
61374;DHT22;47242;48.158;-1.586;2023-03-11T21:51:00;12.40;87.10
61374;DHT22;47242;48.158;-1.586;2023-03-11T21:53:28;12.40;87.20
61374;DHT22;47242;48.158;-1.586;2023-03-11T21:55:54;12.40;87.10
61374;DHT22;47242;48.158;-1.586;2023-03-11T21:58:20;12.40;87.20
61374;DHT22;47242;48.158;-1.586;2023-03-11T22:00:46;12.40;87.30
61374;DHT22;47242;48.158;-1.586;2023-03-11T22:03:12;12.50;87.10
61374;DHT22;47242;48.158;-1.586;2023-03-11T22:05:38;12.50;87.20
61374;DHT22;47242;48.158;-1.586;2023-03-11T22:08:04;12.50;87.00
61374;DHT22;47242;48.158;-1.586;2023-03-11T22:10:30;12.50;87.00
61374;DHT22;47242;48.158;-1.586;2023-03-11T22:12:56;12.50;87.00
61374;DHT22;47242;48.158;-1.586;2023-03-11T22:15:22;12.50;87.10
61374;DHT22;47242;48.158;-1.586;2023-03-11T22:17:48;12.50;87.00
61374;DHT22;47242;48.158;-1.586;2023-03-11T22:20:13;12.40;87.00
61374;DHT22;47242;48.158;-1.586;2023-03-11T22:22:39;12.40;86.90
61374;DHT22;47242;48.158;-1.586;2023-03-11T22:25:05;12.30;87.00
61374;DHT22;47242;48.158;-1.586;2023-03-11T22:27:31;12.30;87.00
61374;DHT22;47242;48.158;-1.586;2023-03-11T22:29:57;12.40;87.10
